createdAt,value
2023-05-12T00:00:45.425Z,7.16
2023-05-12T00:05:50.145Z,7.28
2023-05-12T00:10:53.983Z,7.89
2023-05-12T00:16:01.276Z,7.84
2023-05-12T00:21:04.928Z,7.06
2023-05-12T00:26:08.506Z,7.07
2023-05-12T00:31:13.458Z,6.87
2023-05-12T00:36:17.160Z,6.96
2023-05-12T00:41:21.107Z,6.86
2023-05-12T00:46:26.477Z,6.74
2023-05-12T00:51:32.312Z,6.74
2023-05-12T00:56:39.638Z,6.67
2023-05-12T01:01:46.634Z,7.50
2023-05-12T01:06:57.022Z,9.99
2023-05-12T01:12:00.625Z,7.50
2023-05-12T01:17:11.295Z,6.90
2023-05-12T01:22:16.371Z,6.91
2023-05-12T01:27:27.609Z,6.71
2023-05-12T01:32:34.324Z,6.71
2023-05-12T01:37:40.590Z,6.87
2023-05-12T01:42:48.694Z,6.91
2023-05-12T01:47:52.434Z,6.56
2023-05-12T01:52:56.144Z,6.55
2023-05-12T01:58:01.207Z,6.64
2023-05-12T02:03:09.190Z,6.56
2023-05-12T02:08:15.868Z,6.54
2023-05-12T02:13:21.373Z,6.70
2023-05-12T02:18:25.125Z,6.61
2023-05-12T02:23:29.580Z,6.73
2023-05-12T02:28:34.485Z,6.57
2023-05-12T02:33:38.078Z,6.61
2023-05-12T02:38:42.159Z,8.90
2023-05-12T02:43:49.615Z,8.47
2023-05-12T02:48:53.324Z,7.24
2023-05-12T02:54:01.816Z,6.75
2023-05-12T02:59:06.686Z,6.75
2023-05-12T03:04:10.983Z,6.84
2023-05-12T03:09:17.253Z,6.68
2023-05-12T03:14:26.276Z,6.83
2023-05-12T03:19:30.042Z,10.54
2023-05-12T03:24:34.119Z,10.00
2023-05-12T03:29:39.474Z,8.48
2023-05-12T03:34:43.013Z,7.28
2023-05-12T03:39:47.064Z,6.98
2023-05-12T03:44:56.619Z,6.98
2023-05-12T03:50:01.630Z,8.29
2023-05-12T03:55:07.620Z,10.31
2023-05-12T04:00:13.436Z,12.75
2023-05-12T04:05:20.233Z,9.65
2023-05-12T04:10:23.884Z,7.52
2023-05-12T04:15:28.731Z,6.95
2023-05-12T04:20:32.422Z,6.91
2023-05-12T04:25:39.680Z,24.19
2023-05-12T04:30:47.551Z,17.17
2023-05-12T04:35:51.195Z,8.22
2023-05-12T04:41:00.483Z,7.18
2023-05-12T04:46:05.753Z,11.07
2023-05-12T04:51:09.617Z,8.43
2023-05-12T04:56:13.702Z,7.24
2023-05-12T05:01:21.250Z,7.61
2023-05-12T05:06:28.302Z,8.65
2023-05-12T05:11:32.295Z,7.08
2023-05-12T05:16:40.099Z,6.41
2023-05-12T05:21:46.287Z,6.52
2023-05-12T05:26:50.126Z,6.69
2023-05-12T05:31:55.724Z,6.42
2023-05-12T05:36:59.350Z,6.27
2023-05-12T05:42:03.120Z,6.48
2023-05-12T05:47:08.616Z,6.57
2023-05-12T05:52:12.466Z,6.23
2023-05-12T05:57:19.973Z,5.80
2023-05-12T06:02:25.250Z,6.06
2023-05-12T06:07:29.089Z,6.13
2023-05-12T06:12:32.653Z,6.15
2023-05-12T06:17:37.724Z,6.04
2023-05-12T06:22:44.400Z,5.56
2023-05-12T06:27:52.000Z,5.53
2023-05-12T06:32:57.074Z,5.34
2023-05-12T06:38:01.044Z,5.42
2023-05-12T06:43:04.763Z,5.36
2023-05-12T06:48:13.656Z,5.39
2023-05-12T06:53:19.469Z,5.24
2023-05-12T06:58:23.011Z,5.19
2023-05-12T07:03:28.169Z,4.86
2023-05-12T07:08:34.319Z,5.03
2023-05-12T07:13:38.142Z,10.33
2023-05-12T07:18:43.688Z,10.26
2023-05-12T07:23:47.901Z,6.24
2023-05-12T07:28:52.899Z,4.86
2023-05-12T07:33:57.888Z,4.64
2023-05-12T07:39:01.899Z,4.54
2023-05-12T07:44:05.623Z,4.71
2023-05-12T07:49:10.676Z,4.82
2023-05-12T07:54:16.705Z,5.92
2023-05-12T07:59:22.381Z,6.57
2023-05-12T08:04:30.224Z,4.60
2023-05-12T08:09:36.551Z,4.52
2023-05-12T08:14:40.128Z,4.53
2023-05-12T08:19:45.568Z,4.43
2023-05-12T08:24:52.727Z,4.73
2023-05-12T08:29:58.829Z,4.70
2023-05-12T08:35:03.909Z,4.69
2023-05-12T08:40:16.746Z,4.64
2023-05-12T08:45:24.091Z,4.64
2023-05-12T08:50:33.891Z,4.56
2023-05-12T08:55:40.718Z,4.58
2023-05-12T09:00:45.422Z,4.44
2023-05-12T09:05:50.630Z,4.48
2023-05-12T09:10:56.692Z,4.45
2023-05-12T09:16:02.868Z,4.98
2023-05-12T09:21:08.045Z,4.43
2023-05-12T09:26:16.377Z,4.37
2023-05-12T09:31:23.551Z,4.39
2023-05-12T09:36:30.901Z,4.20
2023-05-12T09:41:37.807Z,4.20
2023-05-12T09:46:41.453Z,4.34
2023-05-12T09:51:52.790Z,4.19
2023-05-12T09:56:59.182Z,4.25
2023-05-12T10:02:07.108Z,4.32
2023-05-12T10:07:14.212Z,3.99
2023-05-12T10:12:18.284Z,4.35
2023-05-12T10:17:21.979Z,4.81
2023-05-12T10:22:27.769Z,5.38
2023-05-12T10:27:34.021Z,5.57
2023-05-12T10:32:38.452Z,4.46
2023-05-12T10:37:44.654Z,4.58
2023-05-12T10:42:51.923Z,4.70
2023-05-12T10:48:05.951Z,4.65
2023-05-12T10:53:12.497Z,4.36
2023-05-12T10:58:18.066Z,4.41
2023-05-12T11:03:27.514Z,4.56
2023-05-12T11:08:35.809Z,4.29
2023-05-12T11:13:45.597Z,4.40
2023-05-12T11:19:01.705Z,4.14
2023-05-12T11:24:13.443Z,4.13
2023-05-12T11:29:17.407Z,4.26
2023-05-12T11:34:22.901Z,4.08
2023-05-12T11:39:32.787Z,4.26
2023-05-12T11:44:47.346Z,4.27
2023-05-12T11:49:54.733Z,4.32
2023-05-12T11:55:01.210Z,4.27
2023-05-12T12:00:09.167Z,4.81
2023-05-12T12:05:17.837Z,4.82
2023-05-12T12:10:26.225Z,4.37
2023-05-12T12:15:30.542Z,4.18
2023-05-12T12:20:34.551Z,4.13
2023-05-12T12:25:41.908Z,3.88
2023-05-12T12:30:48.114Z,4.13
2023-05-12T12:35:53.909Z,4.13
2023-05-12T12:40:58.892Z,3.86
2023-05-12T12:46:02.410Z,3.78
2023-05-12T12:51:06.104Z,3.87
2023-05-12T12:56:11.031Z,4.14
2023-05-12T13:01:16.981Z,4.06
2023-05-12T13:06:22.886Z,4.35
2023-05-12T13:11:28.678Z,3.86
2023-05-12T13:16:32.923Z,3.86
2023-05-12T13:21:36.506Z,4.11
2023-05-12T13:26:41.545Z,3.93
2023-05-12T13:31:47.739Z,3.85
2023-05-12T13:36:51.372Z,3.99
2023-05-12T13:41:56.386Z,4.07
2023-05-12T13:47:00.051Z,4.21
2023-05-12T13:52:04.102Z,4.35
2023-05-12T13:57:09.421Z,4.17
2023-05-12T14:02:14.205Z,4.04
2023-05-12T14:07:19.385Z,4.35
2023-05-12T14:12:24.412Z,4.21
2023-05-12T14:17:28.097Z,4.17
2023-05-12T14:22:31.769Z,4.12
2023-05-12T14:27:36.721Z,4.11
2023-05-12T14:32:42.535Z,4.38
2023-05-12T14:37:46.214Z,4.29
2023-05-12T14:42:52.544Z,4.01
2023-05-12T14:47:56.125Z,3.95
2023-05-12T14:52:59.718Z,4.18
2023-05-12T14:58:05.174Z,4.14
2023-05-12T15:03:12.307Z,3.94
2023-05-12T15:08:16.013Z,3.99
2023-05-12T15:13:22.724Z,4.47
2023-05-12T15:18:31.354Z,4.11
2023-05-12T15:23:35.033Z,4.08
2023-05-12T15:28:42.045Z,4.00
2023-05-12T15:33:45.689Z,4.19
2023-05-12T15:38:49.696Z,4.17
2023-05-12T15:43:57.116Z,4.84
2023-05-12T15:49:00.976Z,4.72
2023-05-12T15:54:07.143Z,4.41
2023-05-12T15:59:14.245Z,4.55
2023-05-12T16:04:17.844Z,4.01
2023-05-12T16:09:21.432Z,4.17
2023-05-12T16:14:26.712Z,4.48
2023-05-12T16:19:30.870Z,4.68
2023-05-12T16:24:34.754Z,5.29
2023-05-12T16:29:39.967Z,4.75
2023-05-12T16:34:43.594Z,4.58
2023-05-12T16:39:47.318Z,4.39
2023-05-12T16:44:55.691Z,4.57
2023-05-12T16:49:59.855Z,4.82
2023-05-12T16:55:06.819Z,6.21
2023-05-12T17:00:15.261Z,4.54
2023-05-12T17:05:19.002Z,4.17
2023-05-12T17:10:23.091Z,4.29
2023-05-12T17:15:28.252Z,4.24
2023-05-12T17:20:34.548Z,4.37
2023-05-12T17:25:38.165Z,4.33
2023-05-12T17:30:45.897Z,4.77
2023-05-12T17:36:04.396Z,4.76
2023-05-12T17:46:23.400Z,5.53
2023-05-12T17:51:29.902Z,4.75
2023-05-12T17:56:35.809Z,4.91
2023-05-12T18:01:40.811Z,4.93
2023-05-12T18:06:44.472Z,5.15
2023-05-12T18:11:48.878Z,5.23
2023-05-12T18:16:53.792Z,5.84
2023-05-12T18:21:57.591Z,6.64
2023-05-12T18:27:05.867Z,5.85
2023-05-12T18:32:11.561Z,5.94
2023-05-12T18:37:15.646Z,5.65
2023-05-12T18:42:19.661Z,5.99
2023-05-12T18:47:27.278Z,6.38
2023-05-12T18:52:34.016Z,6.99
2023-05-12T18:57:38.047Z,6.84
2023-05-12T19:02:43.224Z,7.38
2023-05-12T19:07:48.930Z,7.96
2023-05-12T19:12:52.438Z,7.19
2023-05-12T19:17:59.680Z,6.81
2023-05-12T19:23:03.472Z,7.22
2023-05-12T19:28:07.054Z,7.56
2023-05-12T19:33:17.458Z,8.18
2023-05-12T19:38:21.045Z,8.90
2023-05-12T19:43:24.654Z,9.00
2023-05-12T19:48:29.626Z,9.04
2023-05-12T19:53:33.147Z,8.84
2023-05-12T19:58:36.692Z,9.82
2023-05-12T20:03:44.077Z,10.36
2023-05-12T20:08:50.281Z,14.45
2023-05-12T20:13:54.037Z,19.59
2023-05-12T20:19:00.653Z,13.79
2023-05-12T20:24:08.550Z,10.35
2023-05-12T20:29:12.088Z,11.15
2023-05-12T20:34:17.619Z,11.39
2023-05-12T20:39:21.186Z,11.26
2023-05-12T20:44:26.444Z,11.80
2023-05-12T20:49:31.453Z,11.53
2023-05-12T20:54:38.596Z,11.57
2023-05-12T20:59:48.556Z,12.00
2023-05-12T21:04:57.668Z,12.35
2023-05-12T21:10:01.507Z,12.47
2023-05-12T21:15:05.556Z,12.24
2023-05-12T21:20:12.386Z,12.18
2023-05-12T21:25:19.185Z,12.26
2023-05-12T21:30:22.934Z,12.54
2023-05-12T21:35:28.071Z,12.81
2023-05-12T21:40:33.887Z,12.56
2023-05-12T21:45:40.074Z,12.67
2023-05-12T21:50:45.025Z,12.82
2023-05-12T21:55:51.147Z,13.57
2023-05-12T22:00:54.911Z,14.12
2023-05-12T22:06:02.364Z,15.31
2023-05-12T22:11:06.034Z,16.45
2023-05-12T22:16:10.038Z,17.99
2023-05-12T22:21:14.982Z,22.75
2023-05-12T22:26:20.797Z,37.85
2023-05-12T22:31:24.863Z,48.35
2023-05-12T22:36:29.842Z,52.35
2023-05-12T22:41:36.471Z,52.38
2023-05-12T22:46:42.569Z,53.36
2023-05-12T22:51:47.546Z,47.73
2023-05-12T22:56:53.712Z,37.14
2023-05-12T23:01:57.815Z,32.90
2023-05-12T23:07:06.932Z,29.20
2023-05-12T23:12:11.977Z,28.16
2023-05-12T23:17:15.609Z,25.52
2023-05-12T23:22:20.625Z,22.95
2023-05-12T23:27:26.819Z,22.01
2023-05-12T23:32:30.490Z,22.59
2023-05-12T23:37:35.608Z,21.51
2023-05-12T23:42:39.244Z,21.00
2023-05-12T23:47:43.319Z,21.02
2023-05-12T23:52:48.235Z,20.14
2023-05-12T23:57:54.508Z,20.15
